Alfonso, Virginia
Current Conditions -  °F | °C
As of 7:55 PM on Friday 19 Dec 2014 (Local Time) from KW75 Reporting Station
Clear Clear  
Wind Chill: 36°   Ceiling: Unl
Heat Index: 36°   Visibility: 10mi
Dew Point: 26°   Wind: 3mph
Humidity: 66%   Direction: 310°NW
Pressure: 30.22"   Gusts: NA
Location:  37.7649°N, 76.5055°W
Report Text: KW75 200055Z AUTO 31003KT 10SM CLR 02/M03 A3022 RMK AO1 T00221035
Loading
Personal Weather Stations






























Interactive Weather Map New forecast layout! Learn more

10-Day Weather Forecast

Advertisements
Track Severe Weather on mobile